Time;durP1;ratioP1;P1;durP2;ratioP2;P2;SDS_P1;SDS_P2;PMS_P1;PMS_P2;Temp;Humidity;BMP_temperature;BMP_pressure;BME280_temperature;BME280_humidity;BME280_pressure;Samples;Min_cycle;Max_cycle;Signal;HPM_P1;HPM_P2
2024/01/13 00:02:35;;;;;;;82.47;52.72;;;;;;;;;;5082182;28;20113;-89
2024/01/13 00:05:21;;;;;;;82.32;52.83;;;;;;;;;;5080438;28;20051;-89
2024/01/13 00:08:05;;;;;;;87.68;53.67;;;;;;;;;;5081931;28;20466;-90
2024/01/13 00:10:49;;;;;;;108.30;63.08;;;;;;;;;;5097501;28;20506;-89
2024/01/13 00:13:33;;;;;;;101.97;59.00;;;;;;;;;;5081593;28;20039;-89
2024/01/13 00:16:17;;;;;;;130.85;70.90;;;;;;;;;;5086638;28;20051;-89
2024/01/13 00:19:01;;;;;;;72.03;45.08;;;;;;;;;;5092536;28;20033;-89
2024/01/13 00:21:46;;;;;;;53.47;38.20;;;;;;;;;;5092086;28;20084;-88
2024/01/13 00:24:29;;;;;;;69.97;47.22;;;;;;;;;;5090580;28;20047;-89
2024/01/13 00:27:13;;;;;;;58.65;43.53;;;;;;;;;;5094129;28;20043;-89
2024/01/13 00:29:57;;;;;;;64.93;44.95;;;;;;;;;;5090692;28;20039;-89
2024/01/13 00:32:41;;;;;;;64.82;44.20;;;;;;;;;;5105769;28;20127;-89
2024/01/13 00:35:25;;;;;;;52.20;39.03;;;;;;;;;;5096086;28;20027;-89
2024/01/13 00:38:09;;;;;;;57.72;40.40;;;;;;;;;;5091888;28;20026;-90
2024/01/13 00:40:53;;;;;;;49.92;34.78;;;;;;;;;;5107278;28;20031;-89
2024/01/13 00:43:37;;;;;;;41.70;34.10;;;;;;;;;;5089140;28;20066;-90
2024/01/13 00:46:21;;;;;;;50.58;38.40;;;;;;;;;;5089388;28;20554;-89
2024/01/13 00:49:05;;;;;;;46.75;35.38;;;;;;;;;;5090282;28;20103;-88
2024/01/13 00:51:49;;;;;;;39.17;32.92;;;;;;;;;;5080195;28;20508;-89
2024/01/13 00:54:32;;;;;;;43.00;33.47;;;;;;;;;;5078150;28;20038;-88
2024/01/13 00:57:16;;;;;;;44.67;36.47;;;;;;;;;;5087881;28;20039;-89
2024/01/13 01:00:00;;;;;;;46.35;37.38;;;;;;;;;;5080929;28;20038;-89
2024/01/13 01:02:45;;;;;;;43.35;36.53;;;;;;;;;;5094798;28;20039;-90
2024/01/13 01:05:29;;;;;;;34.75;31.05;;;;;;;;;;5084116;28;20034;-88
2024/01/13 01:08:13;;;;;;;37.92;32.75;;;;;;;;;;5090214;28;20039;-90
2024/01/13 01:10:57;;;;;;;41.83;34.35;;;;;;;;;;5085236;28;20069;-88
2024/01/13 01:13:41;;;;;;;42.10;34.35;;;;;;;;;;5090406;28;20027;-89
2024/01/13 01:16:33;;;;;;;33.35;29.60;;;;;;;;;;5095547;28;20182;-89
2024/01/13 01:19:17;;;;;;;32.38;29.15;;;;;;;;;;5105995;28;20039;-89
2024/01/13 01:22:01;;;;;;;31.08;28.05;;;;;;;;;;5085116;28;20035;-89
2024/01/13 01:24:45;;;;;;;29.95;27.00;;;;;;;;;;5090760;28;20039;-89
2024/01/13 01:27:29;;;;;;;29.63;26.33;;;;;;;;;;5082684;28;20034;-89
2024/01/13 01:30:13;;;;;;;47.17;28.15;;;;;;;;;;5082191;28;20517;-90
2024/01/13 01:32:57;;;;;;;28.40;25.88;;;;;;;;;;5081683;28;20054;-90
2024/01/13 01:35:41;;;;;;;40.58;28.70;;;;;;;;;;5081780;28;20043;-90
2024/01/13 01:38:25;;;;;;;29.27;26.52;;;;;;;;;;5081959;28;20129;-91
2024/01/13 01:41:09;;;;;;;28.73;26.13;;;;;;;;;;5081217;28;20043;-89
2024/01/13 01:43:53;;;;;;;26.60;24.50;;;;;;;;;;5081507;28;20528;-88
2024/01/13 01:46:38;;;;;;;29.33;26.83;;;;;;;;;;5081235;28;20126;-89
2024/01/13 01:49:21;;;;;;;28.10;25.67;;;;;;;;;;5093571;28;20082;-89
2024/01/13 01:52:05;;;;;;;26.98;24.50;;;;;;;;;;5102336;28;20095;-89
2024/01/13 01:54:49;;;;;;;26.88;24.55;;;;;;;;;;5102330;28;20043;-89
2024/01/13 01:57:35;;;;;;;26.92;24.52;;;;;;;;;;5103027;28;20033;-90
2024/01/13 02:00:19;;;;;;;37.25;33.00;;;;;;;;;;5102762;28;20035;-89
2024/01/13 02:03:03;;;;;;;25.95;23.55;;;;;;;;;;5102221;28;20050;-89
2024/01/13 02:05:47;;;;;;;26.35;24.15;;;;;;;;;;5102068;28;20030;-89
2024/01/13 02:08:31;;;;;;;48.17;35.13;;;;;;;;;;5102054;28;20043;-89
2024/01/13 02:11:15;;;;;;;43.05;33.58;;;;;;;;;;5097619;28;20077;-89
2024/01/13 02:13:59;;;;;;;35.47;29.35;;;;;;;;;;5086562;28;20037;-90
2024/01/13 02:16:43;;;;;;;41.53;32.90;;;;;;;;;;5101125;28;20046;-88
2024/01/13 02:19:32;;;;;;;26.20;24.02;;;;;;;;;;5101134;28;20117;-89
2024/01/13 02:22:16;;;;;;;27.38;24.92;;;;;;;;;;5101099;28;20170;-89
2024/01/13 02:25:02;;;;;;;28.67;25.92;;;;;;;;;;5101144;28;20042;-89
2024/01/13 02:27:46;;;;;;;30.73;27.80;;;;;;;;;;5100629;28;20047;-89
2024/01/13 02:30:30;;;;;;;36.30;32.08;;;;;;;;;;5097201;28;20057;-89
2024/01/13 02:33:14;;;;;;;39.63;32.42;;;;;;;;;;5088620;28;20038;-89
2024/01/13 02:35:58;;;;;;;29.85;26.80;;;;;;;;;;5098226;28;20039;-89
2024/01/13 02:38:42;;;;;;;44.40;35.38;;;;;;;;;;5091687;28;20081;-88
2024/01/13 02:41:26;;;;;;;33.22;29.58;;;;;;;;;;5080662;28;20448;-90
2024/01/13 02:44:10;;;;;;;49.85;34.70;;;;;;;;;;5080871;28;20093;-89
2024/01/13 02:46:54;;;;;;;34.22;28.52;;;;;;;;;;5081454;28;20031;-89
2024/01/13 02:49:38;;;;;;;35.40;28.13;;;;;;;;;;5080356;28;20042;-89
2024/01/13 02:52:22;;;;;;;27.48;24.77;;;;;;;;;;5080642;28;20036;-89
2024/01/13 02:55:06;;;;;;;26.02;23.60;;;;;;;;;;5080504;28;20047;-89
2024/01/13 02:57:50;;;;;;;25.63;23.48;;;;;;;;;;5084035;28;20089;-89
2024/01/13 03:00:34;;;;;;;26.98;24.50;;;;;;;;;;5084783;28;20081;-88
2024/01/13 03:03:18;;;;;;;25.20;23.10;;;;;;;;;;5084217;28;20039;-88
2024/01/13 03:06:03;;;;;;;24.70;22.60;;;;;;;;;;5084625;28;20469;-88
2024/01/13 03:08:47;;;;;;;23.60;21.67;;;;;;;;;;5085600;28;20081;-88
2024/01/13 03:11:31;;;;;;;24.10;22.00;;;;;;;;;;5085616;28;20031;-88
2024/01/13 03:14:15;;;;;;;22.95;20.65;;;;;;;;;;5085501;28;20123;-89
2024/01/13 03:16:59;;;;;;;23.63;21.13;;;;;;;;;;5085462;28;20051;-89
2024/01/13 03:19:43;;;;;;;24.50;22.40;;;;;;;;;;5079323;28;20078;-88
2024/01/13 03:22:27;;;;;;;24.08;22.00;;;;;;;;;;5083725;28;20043;-89
2024/01/13 03:25:11;;;;;;;23.45;21.48;;;;;;;;;;5083741;28;20413;-87
2024/01/13 03:27:55;;;;;;;26.00;23.58;;;;;;;;;;5064351;28;20044;-91
2024/01/13 03:30:39;;;;;;;26.88;24.55;;;;;;;;;;5083621;28;20094;-90
2024/01/13 03:33:23;;;;;;;27.00;24.80;;;;;;;;;;5083559;28;20174;-90
2024/01/13 03:36:07;;;;;;;25.58;22.98;;;;;;;;;;5084922;28;20031;-90
2024/01/13 03:38:51;;;;;;;25.15;23.08;;;;;;;;;;5084373;28;20057;-88
2024/01/13 03:41:35;;;;;;;24.83;23.02;;;;;;;;;;5084243;28;20054;-91
2024/01/13 03:44:19;;;;;;;25.48;23.48;;;;;;;;;;5084407;28;20086;-90
2024/01/13 03:47:04;;;;;;;24.23;22.45;;;;;;;;;;5084478;28;20047;-90
2024/01/13 03:49:48;;;;;;;24.60;22.60;;;;;;;;;;5064026;28;20493;-90
2024/01/13 03:52:32;;;;;;;22.52;21.20;;;;;;;;;;5083105;28;20067;-90
2024/01/13 03:55:16;;;;;;;23.27;21.60;;;;;;;;;;5081285;28;20496;-90
2024/01/13 03:58:00;;;;;;;22.17;20.88;;;;;;;;;;5082566;28;20513;-90
2024/01/13 04:00:44;;;;;;;24.83;23.33;;;;;;;;;;5082638;28;20032;-89
2024/01/13 04:03:28;;;;;;;22.50;21.08;;;;;;;;;;5097309;28;20062;-91
2024/01/13 04:06:12;;;;;;;21.83;20.52;;;;;;;;;;5082916;28;20114;-90
2024/01/13 04:08:55;;;;;;;21.15;19.85;;;;;;;;;;5078869;28;20124;-89
2024/01/13 04:11:39;;;;;;;19.90;18.90;;;;;;;;;;5083230;28;20154;-91
2024/01/13 04:14:23;;;;;;;19.38;18.48;;;;;;;;;;5083028;28;20112;-90
2024/01/13 04:17:07;;;;;;;19.33;18.42;;;;;;;;;;5093230;28;20054;-91
2024/01/13 04:19:51;;;;;;;20.40;19.38;;;;;;;;;;5103446;28;20518;-90
2024/01/13 04:22:35;;;;;;;19.88;18.98;;;;;;;;;;5103332;28;20050;-90
2024/01/13 04:25:19;;;;;;;19.33;18.42;;;;;;;;;;5103827;28;20080;-91
2024/01/13 04:28:03;;;;;;;20.10;19.20;;;;;;;;;;5103359;28;20038;-90
2024/01/13 04:30:47;;;;;;;23.90;22.80;;;;;;;;;;5103217;28;20103;-90
2024/01/13 04:33:31;;;;;;;20.98;20.05;;;;;;;;;;5103207;28;20035;-89
2024/01/13 04:36:15;;;;;;;19.77;18.88;;;;;;;;;;5118282;28;20035;-89
2024/01/13 04:38:59;;;;;;;20.90;20.00;;;;;;;;;;5102956;28;20042;-89
2024/01/13 04:41:43;;;;;;;19.10;18.30;;;;;;;;;;5103019;28;20046;-90
2024/01/13 04:44:27;;;;;;;19.42;18.63;;;;;;;;;;5099342;28;20080;-90
2024/01/13 04:47:11;;;;;;;20.38;19.50;;;;;;;;;;5083073;28;20528;-90
2024/01/13 04:49:55;;;;;;;20.25;19.35;;;;;;;;;;5099900;28;20030;-90
2024/01/13 04:52:40;;;;;;;19.60;18.80;;;;;;;;;;5102057;28;20089;-90
2024/01/13 04:55:24;;;;;;;20.45;19.60;;;;;;;;;;5103464;28;20038;-90
2024/01/13 04:58:07;;;;;;;21.90;21.00;;;;;;;;;;5103343;28;20112;-90
2024/01/13 05:00:52;;;;;;;24.15;23.15;;;;;;;;;;5103298;28;20069;-90
2024/01/13 05:03:36;;;;;;;24.10;23.10;;;;;;;;;;5103454;28;20047;-91
2024/01/13 05:06:20;;;;;;;23.92;22.83;;;;;;;;;;5102650;28;20030;-89
2024/01/13 05:09:04;;;;;;;25.15;24.05;;;;;;;;;;5102320;28;20038;-90
2024/01/13 05:11:48;;;;;;;22.80;21.80;;;;;;;;;;5091009;28;20107;-89
2024/01/13 05:14:32;;;;;;;22.58;21.58;;;;;;;;;;5098306;28;20053;-89
2024/01/13 05:17:16;;;;;;;23.17;22.17;;;;;;;;;;5095646;28;20059;-90
2024/01/13 05:20:00;;;;;;;22.08;21.17;;;;;;;;;;5095605;28;20544;-89
2024/01/13 05:22:44;;;;;;;22.13;21.10;;;;;;;;;;5095296;28;20402;-89
2024/01/13 05:25:28;;;;;;;22.95;21.95;;;;;;;;;;5095352;28;20402;-90
2024/01/13 05:28:12;;;;;;;22.15;21.15;;;;;;;;;;5095369;28;20053;-90
2024/01/13 05:30:56;;;;;;;23.67;22.67;;;;;;;;;;5095535;28;20074;-89
2024/01/13 05:33:40;;;;;;;22.33;21.23;;;;;;;;;;5095090;28;20035;-91
2024/01/13 05:36:24;;;;;;;24.20;23.10;;;;;;;;;;5095871;28;20062;-90
2024/01/13 05:39:08;;;;;;;23.08;21.98;;;;;;;;;;5095885;28;20402;-88
2024/01/13 05:41:52;;;;;;;22.15;21.25;;;;;;;;;;5094427;28;20047;-89
2024/01/13 05:44:36;;;;;;;22.60;21.60;;;;;;;;;;5092563;28;20035;-90
2024/01/13 05:47:20;;;;;;;22.27;21.27;;;;;;;;;;5092877;28;20035;-89
2024/01/13 05:50:04;;;;;;;23.55;22.55;;;;;;;;;;5093307;28;20438;-89
2024/01/13 05:52:49;;;;;;;23.10;22.10;;;;;;;;;;5093723;28;20046;-90
2024/01/13 05:55:32;;;;;;;25.05;23.95;;;;;;;;;;5092915;28;20039;-90
2024/01/13 05:58:16;;;;;;;24.85;23.75;;;;;;;;;;5093765;28;20073;-89
2024/01/13 06:01:00;;;;;;;25.17;23.98;;;;;;;;;;5093914;28;20030;-90
2024/01/13 06:03:44;;;;;;;25.67;24.38;;;;;;;;;;5091124;28;20034;-89
2024/01/13 06:06:28;;;;;;;26.13;24.85;;;;;;;;;;5093755;28;20031;-90
2024/01/13 06:09:13;;;;;;;26.98;25.67;;;;;;;;;;5093498;28;20096;-90
2024/01/13 06:11:58;;;;;;;28.20;26.85;;;;;;;;;;5093617;28;20028;-89
2024/01/13 06:14:41;;;;;;;29.55;28.02;;;;;;;;;;5092930;28;20058;-89
2024/01/13 06:17:25;;;;;;;26.65;25.35;;;;;;;;;;5092857;28;20051;-89
2024/01/13 06:20:10;;;;;;;26.20;25.00;;;;;;;;;;5093000;28;20115;-89
2024/01/13 06:22:54;;;;;;;27.55;26.17;;;;;;;;;;5095126;28;20123;-90
2024/01/13 06:25:38;;;;;;;28.20;26.95;;;;;;;;;;5094792;28;20114;-88
2024/01/13 06:28:22;;;;;;;27.00;25.75;;;;;;;;;;5094847;28;20054;-89
2024/01/13 06:31:06;;;;;;;28.58;27.15;;;;;;;;;;5079432;28;20035;-89
2024/01/13 06:33:50;;;;;;;27.63;26.00;;;;;;;;;;5094319;28;20039;-90
2024/01/13 06:36:34;;;;;;;24.75;23.65;;;;;;;;;;5086746;28;20055;-90
2024/01/13 06:39:18;;;;;;;24.20;23.00;;;;;;;;;;5094053;28;20057;-89
2024/01/13 06:42:06;;;;;;;26.42;25.23;;;;;;;;;;5093892;28;20043;-89
2024/01/13 06:44:50;;;;;;;28.10;26.80;;;;;;;;;;5093888;28;20109;-89
2024/01/13 06:47:34;;;;;;;26.50;25.30;;;;;;;;;;5093329;28;20038;-88
2024/01/13 06:50:18;;;;;;;27.35;25.95;;;;;;;;;;5095603;28;20077;-89
2024/01/13 06:53:03;;;;;;;27.20;26.00;;;;;;;;;;5093696;28;20031;-88
2024/01/13 06:55:46;;;;;;;27.75;26.02;;;;;;;;;;5094712;28;20074;-88
2024/01/13 06:58:31;;;;;;;25.95;24.75;;;;;;;;;;5095228;28;20039;-89
2024/01/13 07:01:14;;;;;;;26.50;24.90;;;;;;;;;;5095174;28;20094;-89
2024/01/13 07:03:58;;;;;;;24.80;23.60;;;;;;;;;;5094050;28;20043;-89
2024/01/13 07:06:42;;;;;;;25.85;24.45;;;;;;;;;;5094379;28;20043;-88
2024/01/13 07:09:26;;;;;;;20.65;19.55;;;;;;;;;;5095188;28;20089;-88
2024/01/13 07:12:10;;;;;;;21.58;20.48;;;;;;;;;;5094687;28;20039;-88
2024/01/13 07:14:54;;;;;;;19.60;18.60;;;;;;;;;;5094588;28;20032;-89
2024/01/13 07:17:38;;;;;;;21.58;20.50;;;;;;;;;;5093905;28;20070;-89
2024/01/13 07:20:22;;;;;;;21.05;19.85;;;;;;;;;;5094440;28;20039;-89
2024/01/13 07:23:06;;;;;;;22.17;20.98;;;;;;;;;;5088966;28;20081;-88
2024/01/13 07:25:50;;;;;;;22.00;20.80;;;;;;;;;;5074810;28;20052;-90
2024/01/13 07:28:34;;;;;;;21.05;19.90;;;;;;;;;;5090079;28;20083;-89
2024/01/13 07:31:18;;;;;;;19.75;18.73;;;;;;;;;;5095346;28;20146;-89
2024/01/13 07:34:02;;;;;;;21.17;20.05;;;;;;;;;;5094811;28;20055;-89
2024/01/13 07:36:45;;;;;;;19.52;18.42;;;;;;;;;;5094516;28;20074;-88
2024/01/13 07:39:29;;;;;;;20.27;19.38;;;;;;;;;;5094025;28;20389;-90
2024/01/13 07:42:13;;;;;;;20.08;19.17;;;;;;;;;;5096669;28;20034;-89
2024/01/13 07:44:57;;;;;;;19.98;18.88;;;;;;;;;;5092172;28;20035;-89
2024/01/13 07:47:43;;;;;;;19.08;18.17;;;;;;;;;;5097424;28;20039;-89
2024/01/13 07:50:27;;;;;;;20.20;19.30;;;;;;;;;;5100188;28;20047;-89
2024/01/13 07:53:10;;;;;;;20.85;19.67;;;;;;;;;;5096649;28;20039;-89
2024/01/13 07:55:55;;;;;;;19.98;18.77;;;;;;;;;;5096988;28;20031;-88
2024/01/13 07:58:39;;;;;;;19.55;18.65;;;;;;;;;;5097937;28;20406;-89
2024/01/13 08:01:23;;;;;;;19.23;18.17;;;;;;;;;;5098136;28;20397;-89
2024/01/13 08:04:07;;;;;;;19.00;17.83;;;;;;;;;;5095713;28;20089;-89
2024/01/13 08:06:56;;;;;;;18.33;17.33;;;;;;;;;;5097604;28;20039;-90
2024/01/13 08:09:47;;;;;;;16.55;15.60;;;;;;;;;;5097735;28;20047;-90
2024/01/13 08:12:31;;;;;;;17.60;16.70;;;;;;;;;;5097973;28;20516;-88
2024/01/13 08:15:15;;;;;;;17.83;16.98;;;;;;;;;;5097740;28;20039;-90
2024/01/13 08:18:02;;;;;;;19.40;18.40;;;;;;;;;;5098343;28;20062;-90
2024/01/13 08:20:45;;;;;;;17.95;17.05;;;;;;;;;;5083398;28;20047;-88
2024/01/13 08:23:30;;;;;;;20.00;18.98;;;;;;;;;;5083787;28;20019;-88
2024/01/13 08:26:13;;;;;;;18.35;17.35;;;;;;;;;;5086120;28;20165;-89
2024/01/13 08:28:57;;;;;;;19.55;18.55;;;;;;;;;;5085588;28;20039;-89
2024/01/13 08:31:47;;;;;;;18.98;17.95;;;;;;;;;;5090359;28;20043;-89
2024/01/13 08:34:32;;;;;;;20.48;19.33;;;;;;;;;;5085875;28;20105;-89
2024/01/13 08:37:16;;;;;;;16.80;15.75;;;;;;;;;;5079937;28;20036;-89
2024/01/13 08:40:00;;;;;;;16.30;15.40;;;;;;;;;;5086576;28;20043;-89
2024/01/13 08:42:47;;;;;;;18.42;17.40;;;;;;;;;;5086397;28;20098;-89
2024/01/13 08:45:31;;;;;;;15.65;14.75;;;;;;;;;;5086520;28;20146;-89
2024/01/13 08:48:15;;;;;;;18.40;17.40;;;;;;;;;;5084018;28;20503;-88
2024/01/13 08:50:59;;;;;;;18.10;17.08;;;;;;;;;;5063632;28;20440;-89
2024/01/13 08:53:47;;;;;;;21.20;20.00;;;;;;;;;;5076442;28;20051;-89
2024/01/13 08:56:34;;;;;;;18.67;17.42;;;;;;;;;;5075466;28;20097;-90
2024/01/13 08:59:33;;;;;;;;;;;;;;;;;;;;;
2024/01/13 09:02:19;;;;;;;19.10;17.90;;;;;;;;;;5083969;28;20036;-89
2024/01/13 09:05:08;;;;;;;17.83;16.60;;;;;;;;;;5066826;28;20090;-89
2024/01/13 09:07:53;;;;;;;20.42;19.15;;;;;;;;;;5062372;28;20107;-89
2024/01/13 09:10:37;;;;;;;19.90;18.52;;;;;;;;;;5061884;28;20044;-89
2024/01/13 09:13:21;;;;;;;19.75;18.50;;;;;;;;;;5063540;28;20047;-89
2024/01/13 09:16:05;;;;;;;19.25;17.95;;;;;;;;;;5080133;28;20062;-89
2024/01/13 09:18:49;;;;;;;19.10;18.08;;;;;;;;;;5102323;28;20035;-90
2024/01/13 09:21:33;;;;;;;19.80;18.60;;;;;;;;;;5100748;28;20524;-89
2024/01/13 09:24:17;;;;;;;19.40;18.33;;;;;;;;;;5101373;28;20516;-90
2024/01/13 09:27:00;;;;;;;17.92;16.88;;;;;;;;;;5101001;28;20042;-88
2024/01/13 09:29:45;;;;;;;18.33;16.98;;;;;;;;;;5101962;28;20096;-88
2024/01/13 09:32:29;;;;;;;18.20;17.02;;;;;;;;;;5101450;28;20089;-89
2024/01/13 09:35:13;;;;;;;15.85;14.57;;;;;;;;;;5102714;28;20136;-88
2024/01/13 09:37:57;;;;;;;14.77;13.68;;;;;;;;;;5102081;28;20038;-90
2024/01/13 09:40:41;;;;;;;16.73;15.55;;;;;;;;;;5101278;28;20393;-88
2024/01/13 09:43:36;;;;;;;17.00;15.90;;;;;;;;;;5100989;28;20047;-89
2024/01/13 09:46:20;;;;;;;18.10;16.85;;;;;;;;;;5100786;28;20119;-88
2024/01/13 09:49:08;;;;;;;17.50;16.20;;;;;;;;;;5099395;28;20555;-87
2024/01/13 09:51:53;;;;;;;19.27;17.98;;;;;;;;;;5100570;28;20118;-87
2024/01/13 09:54:37;;;;;;;18.05;16.95;;;;;;;;;;5100549;28;20035;-87
2024/01/13 09:57:21;;;;;;;19.20;17.75;;;;;;;;;;5100109;28;20078;-86
2024/01/13 10:00:06;;;;;;;17.00;15.80;;;;;;;;;;5115793;28;20054;-87
2024/01/13 10:09:59;;;;;;;20.05;18.50;;;;;;;;;;5112428;28;20038;-85
2024/01/13 10:12:43;;;;;;;19.30;17.90;;;;;;;;;;5095553;28;20039;-89
2024/01/13 10:15:27;;;;;;;19.70;18.33;;;;;;;;;;5093533;28;20039;-88
2024/01/13 10:18:11;;;;;;;21.45;20.05;;;;;;;;;;5075573;28;20047;-86
2024/01/13 10:20:56;;;;;;;21.38;19.52;;;;;;;;;;5074513;28;20035;-86
2024/01/13 10:23:39;;;;;;;21.15;19.65;;;;;;;;;;5075100;28;20476;-86
2024/01/13 10:26:24;;;;;;;21.90;20.00;;;;;;;;;;5071056;28;20409;-87
2024/01/13 10:29:08;;;;;;;19.17;17.85;;;;;;;;;;5091630;28;20532;-90
2024/01/13 10:31:53;;;;;;;21.52;19.83;;;;;;;;;;5073995;28;20607;-83
2024/01/13 10:34:37;;;;;;;22.13;20.25;;;;;;;;;;5087603;28;20053;-88
2024/01/13 10:37:21;;;;;;;22.67;21.00;;;;;;;;;;5090158;28;20035;-88
2024/01/13 10:40:08;;;;;;;22.65;20.95;;;;;;;;;;5074798;28;20035;-87
2024/01/13 10:42:55;;;;;;;20.38;18.77;;;;;;;;;;5074339;28;20043;-87
2024/01/13 10:45:41;;;;;;;21.25;19.50;;;;;;;;;;5077341;28;20097;-88
2024/01/13 10:48:45;;;;;;;20.35;18.95;;;;;;;;;;5075464;28;20119;-89
2024/01/13 10:51:42;;;;;;;20.45;18.80;;;;;;;;;;5074375;28;20034;-89
2024/01/13 10:54:31;;;;;;;22.58;20.73;;;;;;;;;;5074274;28;20085;-87
2024/01/13 10:57:16;;;;;;;23.67;21.80;;;;;;;;;;5090417;28;20043;-89
2024/01/13 11:00:13;;;;;;;22.45;20.75;;;;;;;;;;5076422;28;20077;-90
2024/01/13 11:02:59;;;;;;;22.55;20.77;;;;;;;;;;5075229;28;20436;-89
2024/01/13 11:05:43;;;;;;;20.65;19.13;;;;;;;;;;5090266;28;20050;-89
2024/01/13 11:08:27;;;;;;;22.20;20.60;;;;;;;;;;5090038;28;20030;-88
2024/01/13 11:11:25;;;;;;;22.13;20.40;;;;;;;;;;5076561;28;20081;-87
2024/01/13 11:14:14;;;;;;;18.80;17.30;;;;;;;;;;5074766;28;20039;-86
2024/01/13 11:16:59;;;;;;;19.92;18.55;;;;;;;;;;5075255;28;20051;-87
2024/01/13 11:20:13;;;;;;;20.08;18.63;;;;;;;;;;5079836;28;20393;-86
2024/01/13 11:22:58;;;;;;;20.15;18.45;;;;;;;;;;5079862;28;20606;-84
2024/01/13 11:25:42;;;;;;;20.27;18.92;;;;;;;;;;5080395;28;20051;-88
2024/01/13 11:28:41;;;;;;;19.48;18.10;;;;;;;;;;5079672;28;20070;-85
2024/01/13 11:31:38;;;;;;;20.88;19.38;;;;;;;;;;5079283;28;20085;-89
2024/01/13 11:34:22;;;;;;;21.25;19.70;;;;;;;;;;5079207;28;20055;-89
2024/01/13 11:37:06;;;;;;;23.42;21.65;;;;;;;;;;5079264;28;20081;-89
2024/01/13 11:39:51;;;;;;;26.63;24.20;;;;;;;;;;5079232;28;20039;-88
2024/01/13 11:42:35;;;;;;;24.30;22.50;;;;;;;;;;5079038;28;20688;-87
2024/01/13 11:45:32;;;;;;;24.23;22.63;;;;;;;;;;5093114;28;20097;-89
2024/01/13 11:48:28;;;;;;;25.75;23.95;;;;;;;;;;5094245;28;20043;-88
2024/01/13 11:51:14;;;;;;;28.42;26.23;;;;;;;;;;5078146;28;20034;-87
2024/01/13 11:53:59;;;;;;;25.75;23.95;;;;;;;;;;5094115;28;20563;-87
2024/01/13 11:56:44;;;;;;;23.55;21.50;;;;;;;;;;5078680;28;20039;-91
2024/01/13 11:59:28;;;;;;;23.88;21.98;;;;;;;;;;5094073;28;20043;-90
2024/01/13 12:02:13;;;;;;;24.02;22.13;;;;;;;;;;5079027;28;20050;-87
2024/01/13 12:04:57;;;;;;;29.67;26.58;;;;;;;;;;5078380;28;20680;-91
2024/01/13 12:07:41;;;;;;;24.83;22.55;;;;;;;;;;5073501;28;20043;-87
2024/01/13 12:10:25;;;;;;;25.05;22.92;;;;;;;;;;5078281;28;20071;-87
2024/01/13 12:13:18;;;;;;;27.67;25.65;;;;;;;;;;5079489;28;20150;-88
2024/01/13 12:16:07;;;;;;;30.35;27.75;;;;;;;;;;5082740;28;20547;-87
2024/01/13 12:18:52;;;;;;;25.55;23.55;;;;;;;;;;5091279;28;20518;-88
2024/01/13 12:21:36;;;;;;;26.05;24.15;;;;;;;;;;5085939;28;20101;-87
2024/01/13 12:24:31;;;;;;;24.90;22.77;;;;;;;;;;5090353;28;20390;-89
2024/01/13 12:27:15;;;;;;;22.40;20.80;;;;;;;;;;5088868;28;20042;-87
2024/01/13 12:30:00;;;;;;;20.08;18.42;;;;;;;;;;5088874;28;20043;-87
2024/01/13 12:32:45;;;;;;;21.13;19.58;;;;;;;;;;5103473;28;20516;-87
2024/01/13 12:35:30;;;;;;;21.35;19.63;;;;;;;;;;5087383;28;20040;-90
2024/01/13 12:38:14;;;;;;;23.88;22.17;;;;;;;;;;5100026;28;20173;-89
2024/01/13 12:40:58;;;;;;;22.52;20.92;;;;;;;;;;5082262;28;20042;-87
2024/01/13 12:43:42;;;;;;;21.77;20.27;;;;;;;;;;5105986;28;20043;-86
2024/01/13 12:46:26;;;;;;;20.75;19.05;;;;;;;;;;5087156;28;20038;-87
2024/01/13 12:49:14;;;;;;;22.65;20.60;;;;;;;;;;5103434;28;20504;-87
2024/01/13 12:52:00;;;;;;;20.23;18.52;;;;;;;;;;5087117;28;20039;-88
2024/01/13 12:54:44;;;;;;;19.63;18.33;;;;;;;;;;5090577;28;20034;-89
2024/01/13 12:57:29;;;;;;;22.95;21.45;;;;;;;;;;5091419;28;20140;-87
2024/01/13 13:00:13;;;;;;;21.83;19.83;;;;;;;;;;5086606;28;20509;-88
2024/01/13 13:02:57;;;;;;;23.13;21.35;;;;;;;;;;5085271;28;20570;-90
2024/01/13 13:05:41;;;;;;;19.73;18.52;;;;;;;;;;5088252;28;20070;-88
2024/01/13 13:08:24;;;;;;;21.80;19.70;;;;;;;;;;5085651;28;20529;-86
2024/01/13 13:11:10;;;;;;;21.13;18.90;;;;;;;;;;5099091;28;20050;-88
2024/01/13 13:13:53;;;;;;;23.83;21.58;;;;;;;;;;5086100;28;20577;-89
2024/01/13 13:16:37;;;;;;;20.88;19.35;;;;;;;;;;5076150;28;20146;-89
2024/01/13 13:19:22;;;;;;;20.13;18.42;;;;;;;;;;5077328;28;20145;-87
2024/01/13 13:22:10;;;;;;;20.95;19.08;;;;;;;;;;5077625;28;20049;-89
2024/01/13 13:24:54;;;;;;;20.13;18.60;;;;;;;;;;5079262;28;20039;-92
2024/01/13 13:30:43;;;;;;;;;;;;;;;;;;5095076;28;20085;-90
2024/01/13 13:33:27;;;;;;;19.73;18.38;;;;;;;;;;5077969;28;19931;-90
2024/01/13 13:40:24;;;;;;;14.50;13.50;;;;;;;;;;5094601;28;20074;-90
2024/01/13 13:43:20;;;;;;;16.75;15.35;;;;;;;;;;5018067;28;20078;-90
2024/01/13 13:46:05;;;;;;;19.45;17.98;;;;;;;;;;5093215;28;20031;-88
2024/01/13 13:48:49;;;;;;;18.27;16.85;;;;;;;;;;5078954;28;20102;-89
2024/01/13 13:51:33;;;;;;;20.20;18.60;;;;;;;;;;5078909;28;20035;-89
2024/01/13 13:54:17;;;;;;;19.95;18.45;;;;;;;;;;5078969;28;20089;-90
2024/01/13 13:57:01;;;;;;;20.13;17.95;;;;;;;;;;5077701;28;20039;-90
2024/01/13 13:59:45;;;;;;;28.27;25.23;;;;;;;;;;5077667;28;20092;-90
2024/01/13 14:02:29;;;;;;;19.25;17.73;;;;;;;;;;5075213;28;20572;-88
2024/01/13 14:05:13;;;;;;;16.77;15.48;;;;;;;;;;5076250;28;20043;-87
2024/01/13 14:07:57;;;;;;;17.15;15.45;;;;;;;;;;5075983;28;20158;-87
2024/01/13 14:10:44;;;;;;;17.98;16.33;;;;;;;;;;5076473;28;20533;-89
2024/01/13 14:13:28;;;;;;;16.77;15.10;;;;;;;;;;5075187;28;20088;-90
2024/01/13 14:16:12;;;;;;;14.02;12.93;;;;;;;;;;5076603;28;20067;-88
2024/01/13 14:18:56;;;;;;;14.80;13.70;;;;;;;;;;5093044;28;20085;-89
2024/01/13 14:21:40;;;;;;;13.85;13.05;;;;;;;;;;5091488;28;20081;-90
2024/01/13 14:24:24;;;;;;;14.77;13.75;;;;;;;;;;5078087;28;20051;-89
2024/01/13 14:27:11;;;;;;;16.08;15.07;;;;;;;;;;5092517;28;20081;-89
2024/01/13 14:29:59;;;;;;;16.45;15.18;;;;;;;;;;5091725;28;20050;-88
2024/01/13 14:32:43;;;;;;;17.23;16.02;;;;;;;;;;5092077;28;20381;-90
2024/01/13 14:35:27;;;;;;;18.73;17.40;;;;;;;;;;5094151;28;20088;-89
2024/01/13 14:38:11;;;;;;;17.45;16.25;;;;;;;;;;5092908;28;20047;-90
2024/01/13 14:40:55;;;;;;;15.95;14.80;;;;;;;;;;5092873;28;20089;-89
2024/01/13 14:43:39;;;;;;;14.18;13.38;;;;;;;;;;5092421;28;20047;-90
2024/01/13 14:46:23;;;;;;;16.27;15.20;;;;;;;;;;5092276;28;20039;-89
2024/01/13 14:49:07;;;;;;;16.77;15.43;;;;;;;;;;5092497;28;20035;-90
2024/01/13 14:51:51;;;;;;;15.05;13.85;;;;;;;;;;5090582;28;20040;-89
2024/01/13 14:54:35;;;;;;;17.50;16.02;;;;;;;;;;5092272;28;20038;-90
2024/01/13 14:57:19;;;;;;;24.63;22.10;;;;;;;;;;5092116;28;20039;-90
2024/01/13 15:00:05;;;;;;;28.13;25.33;;;;;;;;;;5092707;28;20043;-89
2024/01/13 15:02:50;;;;;;;24.88;20.85;;;;;;;;;;5091339;28;20035;-89
2024/01/13 15:05:38;;;;;;;20.00;18.00;;;;;;;;;;5091810;28;20112;-89
2024/01/13 15:08:21;;;;;;;19.30;17.83;;;;;;;;;;5091011;28;20069;-90
2024/01/13 15:11:05;;;;;;;19.58;17.52;;;;;;;;;;5091147;28;20158;-89
2024/01/13 15:13:49;;;;;;;16.77;15.45;;;;;;;;;;5088402;28;20532;-89
2024/01/13 15:16:33;;;;;;;15.27;13.88;;;;;;;;;;5090581;28;20066;-90
2024/01/13 15:19:20;;;;;;;14.90;13.82;;;;;;;;;;5091521;28;20063;-90
2024/01/13 15:22:04;;;;;;;13.05;12.13;;;;;;;;;;5090755;28;20081;-89
2024/01/13 15:24:48;;;;;;;14.85;13.60;;;;;;;;;;5091600;28;20081;-89
2024/01/13 15:27:32;;;;;;;15.00;13.85;;;;;;;;;;5091644;28;20023;-91
2024/01/13 15:30:16;;;;;;;17.15;15.73;;;;;;;;;;5089982;28;20035;-90
2024/01/13 15:33:00;;;;;;;16.73;15.30;;;;;;;;;;5091194;28;20073;-90
2024/01/13 15:35:45;;;;;;;16.17;14.82;;;;;;;;;;5091760;28;20074;-91
2024/01/13 15:38:28;;;;;;;16.88;15.68;;;;;;;;;;5091773;28;20030;-89
2024/01/13 15:41:12;;;;;;;17.02;15.45;;;;;;;;;;5091044;28;20090;-89
2024/01/13 15:43:56;;;;;;;17.13;15.93;;;;;;;;;;5090845;28;20129;-89
2024/01/13 15:46:41;;;;;;;15.48;14.35;;;;;;;;;;5091700;28;20098;-90
2024/01/13 15:49:25;;;;;;;15.63;14.43;;;;;;;;;;5091442;28;20046;-89
2024/01/13 15:52:09;;;;;;;15.95;14.57;;;;;;;;;;5091504;28;20039;-89
2024/01/13 15:54:53;;;;;;;16.50;15.10;;;;;;;;;;5092721;28;20031;-89
2024/01/13 15:57:38;;;;;;;15.75;14.45;;;;;;;;;;5091434;28;20052;-89
2024/01/13 16:00:21;;;;;;;15.88;14.75;;;;;;;;;;5090302;28;20097;-84
2024/01/13 16:03:05;;;;;;;15.50;14.50;;;;;;;;;;5092779;28;20070;-89
2024/01/13 16:05:49;;;;;;;15.48;14.20;;;;;;;;;;5094880;28;20391;-90
2024/01/13 16:08:33;;;;;;;16.30;15.13;;;;;;;;;;5094452;28;20444;-90
2024/01/13 16:11:17;;;;;;;20.15;17.90;;;;;;;;;;5094100;28;20044;-89
2024/01/13 16:14:01;;;;;;;20.83;18.63;;;;;;;;;;5094180;28;20050;-90
2024/01/13 16:16:46;;;;;;;20.48;18.33;;;;;;;;;;5093319;28;20063;-89